sensor_id;sensor_type;location;lat;lon;timestamp;P1;durP1;ratioP1;P2;durP2;ratioP2
59338;SDS011;45117;50.960;5.500;2022-07-29T00:02:18;6.10;;;1.92;;
59338;SDS011;45117;50.960;5.500;2022-07-29T00:04:44;6.75;;;2.33;;
59338;SDS011;45117;50.960;5.500;2022-07-29T00:07:11;5.60;;;1.65;;
59338;SDS011;45117;50.960;5.500;2022-07-29T00:09:37;8.15;;;2.45;;
59338;SDS011;45117;50.960;5.500;2022-07-29T00:12:04;7.82;;;2.45;;
59338;SDS011;45117;50.960;5.500;2022-07-29T00:14:31;6.55;;;2.25;;
59338;SDS011;45117;50.960;5.500;2022-07-29T00:16:59;4.65;;;2.35;;
59338;SDS011;45117;50.960;5.500;2022-07-29T00:19:25;5.55;;;2.55;;
59338;SDS011;45117;50.960;5.500;2022-07-29T00:21:52;6.68;;;2.33;;
59338;SDS011;45117;50.960;5.500;2022-07-29T00:24:18;3.78;;;2.10;;
59338;SDS011;45117;50.960;5.500;2022-07-29T00:26:45;7.22;;;2.38;;
59338;SDS011;45117;50.960;5.500;2022-07-29T00:29:12;3.92;;;2.30;;
59338;SDS011;45117;50.960;5.500;2022-07-29T00:31:38;8.82;;;2.85;;
59338;SDS011;45117;50.960;5.500;2022-07-29T00:34:06;5.63;;;2.85;;
59338;SDS011;45117;50.960;5.500;2022-07-29T00:36:53;7.90;;;2.30;;
59338;SDS011;45117;50.960;5.500;2022-07-29T00:39:19;4.95;;;2.40;;
59338;SDS011;45117;50.960;5.500;2022-07-29T00:41:45;5.72;;;2.17;;
59338;SDS011;45117;50.960;5.500;2022-07-29T00:44:12;5.00;;;2.40;;
59338;SDS011;45117;50.960;5.500;2022-07-29T00:46:38;9.63;;;2.55;;
59338;SDS011;45117;50.960;5.500;2022-07-29T00:49:06;6.22;;;2.50;;
59338;SDS011;45117;50.960;5.500;2022-07-29T00:51:33;6.82;;;2.80;;
59338;SDS011;45117;50.960;5.500;2022-07-29T00:54:01;9.85;;;2.72;;
59338;SDS011;45117;50.960;5.500;2022-07-29T00:56:29;9.05;;;2.50;;
59338;SDS011;45117;50.960;5.500;2022-07-29T00:58:56;6.35;;;2.35;;
59338;SDS011;45117;50.960;5.500;2022-07-29T01:01:23;6.57;;;2.22;;
59338;SDS011;45117;50.960;5.500;2022-07-29T01:03:49;5.40;;;2.10;;
59338;SDS011;45117;50.960;5.500;2022-07-29T01:06:18;7.63;;;2.33;;
59338;SDS011;45117;50.960;5.500;2022-07-29T01:08:45;6.43;;;2.50;;
59338;SDS011;45117;50.960;5.500;2022-07-29T01:11:14;5.70;;;2.40;;
59338;SDS011;45117;50.960;5.500;2022-07-29T01:13:41;5.32;;;2.13;;
59338;SDS011;45117;50.960;5.500;2022-07-29T01:16:10;6.20;;;2.20;;
59338;SDS011;45117;50.960;5.500;2022-07-29T01:18:42;5.72;;;2.55;;
59338;SDS011;45117;50.960;5.500;2022-07-29T01:21:23;5.82;;;2.42;;
59338;SDS011;45117;50.960;5.500;2022-07-29T01:24:11;6.05;;;2.58;;
59338;SDS011;45117;50.960;5.500;2022-07-29T01:26:46;6.05;;;2.30;;
59338;SDS011;45117;50.960;5.500;2022-07-29T01:29:21;3.58;;;2.10;;
59338;SDS011;45117;50.960;5.500;2022-07-29T01:31:54;5.90;;;2.17;;
59338;SDS011;45117;50.960;5.500;2022-07-29T01:34:25;5.43;;;2.28;;
59338;SDS011;45117;50.960;5.500;2022-07-29T01:37:00;5.53;;;2.47;;
59338;SDS011;45117;50.960;5.500;2022-07-29T01:39:32;4.68;;;2.42;;
59338;SDS011;45117;50.960;5.500;2022-07-29T01:42:05;6.93;;;2.17;;
59338;SDS011;45117;50.960;5.500;2022-07-29T01:44:37;11.48;;;2.42;;
59338;SDS011;45117;50.960;5.500;2022-07-29T01:47:10;5.22;;;2.50;;
59338;SDS011;45117;50.960;5.500;2022-07-29T01:49:41;4.15;;;2.35;;
59338;SDS011;45117;50.960;5.500;2022-07-29T01:52:13;5.47;;;2.30;;
59338;SDS011;45117;50.960;5.500;2022-07-29T01:54:45;5.55;;;2.40;;
59338;SDS011;45117;50.960;5.500;2022-07-29T01:57:16;8.20;;;2.50;;
59338;SDS011;45117;50.960;5.500;2022-07-29T01:59:47;5.63;;;2.40;;
59338;SDS011;45117;50.960;5.500;2022-07-29T02:02:16;5.10;;;2.30;;
59338;SDS011;45117;50.960;5.500;2022-07-29T02:04:44;5.65;;;2.75;;
59338;SDS011;45117;50.960;5.500;2022-07-29T02:07:15;4.82;;;2.45;;
59338;SDS011;45117;50.960;5.500;2022-07-29T02:09:45;8.82;;;2.90;;
59338;SDS011;45117;50.960;5.500;2022-07-29T02:12:15;6.82;;;2.60;;
59338;SDS011;45117;50.960;5.500;2022-07-29T02:14:46;5.95;;;2.80;;
59338;SDS011;45117;50.960;5.500;2022-07-29T02:17:16;4.75;;;2.90;;
59338;SDS011;45117;50.960;5.500;2022-07-29T02:19:49;5.85;;;2.33;;
59338;SDS011;45117;50.960;5.500;2022-07-29T02:22:17;5.78;;;2.70;;
59338;SDS011;45117;50.960;5.500;2022-07-29T02:24:45;6.22;;;2.50;;
59338;SDS011;45117;50.960;5.500;2022-07-29T02:27:13;6.03;;;2.58;;
59338;SDS011;45117;50.960;5.500;2022-07-29T02:29:40;4.97;;;2.47;;
59338;SDS011;45117;50.960;5.500;2022-07-29T02:32:09;4.13;;;2.42;;
59338;SDS011;45117;50.960;5.500;2022-07-29T02:34:39;4.78;;;2.35;;
59338;SDS011;45117;50.960;5.500;2022-07-29T02:37:08;6.35;;;2.70;;
59338;SDS011;45117;50.960;5.500;2022-07-29T02:39:35;8.05;;;3.10;;
59338;SDS011;45117;50.960;5.500;2022-07-29T02:42:05;7.03;;;3.17;;
59338;SDS011;45117;50.960;5.500;2022-07-29T02:44:34;6.00;;;2.67;;
59338;SDS011;45117;50.960;5.500;2022-07-29T02:47:02;6.78;;;2.70;;
59338;SDS011;45117;50.960;5.500;2022-07-29T02:49:36;5.18;;;2.65;;
59338;SDS011;45117;50.960;5.500;2022-07-29T02:52:04;7.70;;;2.53;;
59338;SDS011;45117;50.960;5.500;2022-07-29T02:54:37;6.55;;;3.15;;
59338;SDS011;45117;50.960;5.500;2022-07-29T02:57:08;5.78;;;2.10;;
59338;SDS011;45117;50.960;5.500;2022-07-29T02:59:52;6.13;;;2.80;;
59338;SDS011;45117;50.960;5.500;2022-07-29T03:02:20;7.35;;;1.98;;
59338;SDS011;45117;50.960;5.500;2022-07-29T03:04:49;4.88;;;2.30;;
59338;SDS011;45117;50.960;5.500;2022-07-29T03:07:18;6.78;;;2.42;;
59338;SDS011;45117;50.960;5.500;2022-07-29T03:09:46;7.53;;;2.70;;
59338;SDS011;45117;50.960;5.500;2022-07-29T03:12:13;7.78;;;2.92;;
59338;SDS011;45117;50.960;5.500;2022-07-29T03:14:41;5.32;;;2.47;;
59338;SDS011;45117;50.960;5.500;2022-07-29T03:17:08;5.22;;;2.97;;
59338;SDS011;45117;50.960;5.500;2022-07-29T03:19:35;4.80;;;2.53;;
59338;SDS011;45117;50.960;5.500;2022-07-29T03:22:03;7.07;;;2.72;;
59338;SDS011;45117;50.960;5.500;2022-07-29T03:24:32;4.53;;;2.63;;
59338;SDS011;45117;50.960;5.500;2022-07-29T03:26:59;5.90;;;2.90;;
59338;SDS011;45117;50.960;5.500;2022-07-29T03:29:26;5.38;;;2.85;;
59338;SDS011;45117;50.960;5.500;2022-07-29T03:31:53;5.70;;;2.65;;
59338;SDS011;45117;50.960;5.500;2022-07-29T03:34:20;7.20;;;2.72;;
59338;SDS011;45117;50.960;5.500;2022-07-29T03:36:46;7.85;;;3.22;;
59338;SDS011;45117;50.960;5.500;2022-07-29T03:39:16;5.63;;;3.25;;
59338;SDS011;45117;50.960;5.500;2022-07-29T03:41:44;5.45;;;3.25;;
59338;SDS011;45117;50.960;5.500;2022-07-29T03:44:13;4.90;;;2.70;;
59338;SDS011;45117;50.960;5.500;2022-07-29T03:46:42;5.18;;;3.22;;
59338;SDS011;45117;50.960;5.500;2022-07-29T03:49:10;7.22;;;2.97;;
59338;SDS011;45117;50.960;5.500;2022-07-29T03:51:37;6.43;;;2.97;;
59338;SDS011;45117;50.960;5.500;2022-07-29T03:54:05;5.40;;;2.88;;
59338;SDS011;45117;50.960;5.500;2022-07-29T03:56:34;7.47;;;3.00;;
59338;SDS011;45117;50.960;5.500;2022-07-29T03:59:04;7.78;;;3.03;;
59338;SDS011;45117;50.960;5.500;2022-07-29T04:01:32;6.85;;;3.05;;
59338;SDS011;45117;50.960;5.500;2022-07-29T04:03:59;8.52;;;3.25;;
59338;SDS011;45117;50.960;5.500;2022-07-29T04:06:28;5.63;;;2.83;;
59338;SDS011;45117;50.960;5.500;2022-07-29T04:08:54;6.45;;;3.05;;
59338;SDS011;45117;50.960;5.500;2022-07-29T04:11:21;8.50;;;3.65;;
59338;SDS011;45117;50.960;5.500;2022-07-29T04:13:49;6.80;;;3.20;;
59338;SDS011;45117;50.960;5.500;2022-07-29T04:16:15;6.50;;;3.05;;
59338;SDS011;45117;50.960;5.500;2022-07-29T04:18:42;6.38;;;3.70;;
59338;SDS011;45117;50.960;5.500;2022-07-29T04:21:08;4.93;;;3.35;;
59338;SDS011;45117;50.960;5.500;2022-07-29T04:23:35;5.40;;;3.70;;
59338;SDS011;45117;50.960;5.500;2022-07-29T04:26:01;8.25;;;3.80;;
59338;SDS011;45117;50.960;5.500;2022-07-29T04:28:28;8.45;;;3.60;;
59338;SDS011;45117;50.960;5.500;2022-07-29T04:30:55;8.38;;;3.30;;
59338;SDS011;45117;50.960;5.500;2022-07-29T04:33:22;6.57;;;3.83;;
59338;SDS011;45117;50.960;5.500;2022-07-29T04:35:48;5.55;;;3.80;;
59338;SDS011;45117;50.960;5.500;2022-07-29T04:38:15;9.20;;;3.80;;
59338;SDS011;45117;50.960;5.500;2022-07-29T04:40:41;8.95;;;4.05;;
59338;SDS011;45117;50.960;5.500;2022-07-29T04:43:08;6.97;;;3.30;;
59338;SDS011;45117;50.960;5.500;2022-07-29T04:45:34;6.43;;;3.67;;
59338;SDS011;45117;50.960;5.500;2022-07-29T04:48:03;7.20;;;3.78;;
59338;SDS011;45117;50.960;5.500;2022-07-29T04:50:30;7.88;;;3.53;;
59338;SDS011;45117;50.960;5.500;2022-07-29T04:52:56;7.90;;;3.80;;
59338;SDS011;45117;50.960;5.500;2022-07-29T04:55:23;10.90;;;4.78;;
59338;SDS011;45117;50.960;5.500;2022-07-29T04:57:49;8.52;;;3.90;;
59338;SDS011;45117;50.960;5.500;2022-07-29T05:00:16;9.25;;;3.90;;
59338;SDS011;45117;50.960;5.500;2022-07-29T05:02:43;5.32;;;3.50;;
59338;SDS011;45117;50.960;5.500;2022-07-29T05:05:11;10.38;;;4.28;;
59338;SDS011;45117;50.960;5.500;2022-07-29T05:07:37;5.82;;;3.33;;
59338;SDS011;45117;50.960;5.500;2022-07-29T05:10:04;9.40;;;4.13;;
59338;SDS011;45117;50.960;5.500;2022-07-29T05:12:31;7.70;;;3.90;;
59338;SDS011;45117;50.960;5.500;2022-07-29T05:14:58;7.30;;;3.50;;
59338;SDS011;45117;50.960;5.500;2022-07-29T05:17:24;10.20;;;4.47;;
59338;SDS011;45117;50.960;5.500;2022-07-29T05:19:51;7.43;;;4.05;;
59338;SDS011;45117;50.960;5.500;2022-07-29T05:22:19;5.78;;;4.05;;
59338;SDS011;45117;50.960;5.500;2022-07-29T05:24:46;6.90;;;3.70;;
59338;SDS011;45117;50.960;5.500;2022-07-29T05:27:13;8.32;;;4.20;;
59338;SDS011;45117;50.960;5.500;2022-07-29T05:29:39;7.85;;;4.15;;
59338;SDS011;45117;50.960;5.500;2022-07-29T05:32:06;8.73;;;4.45;;
59338;SDS011;45117;50.960;5.500;2022-07-29T05:34:33;6.85;;;4.05;;
59338;SDS011;45117;50.960;5.500;2022-07-29T05:36:59;8.02;;;3.80;;
59338;SDS011;45117;50.960;5.500;2022-07-29T05:39:27;7.68;;;4.10;;
59338;SDS011;45117;50.960;5.500;2022-07-29T05:41:54;7.13;;;3.90;;
59338;SDS011;45117;50.960;5.500;2022-07-29T05:44:20;8.48;;;4.15;;
59338;SDS011;45117;50.960;5.500;2022-07-29T05:46:47;8.77;;;4.45;;
59338;SDS011;45117;50.960;5.500;2022-07-29T05:49:13;7.40;;;4.50;;
59338;SDS011;45117;50.960;5.500;2022-07-29T05:51:40;8.48;;;4.20;;
59338;SDS011;45117;50.960;5.500;2022-07-29T05:54:06;7.60;;;4.28;;
59338;SDS011;45117;50.960;5.500;2022-07-29T05:56:35;7.80;;;4.45;;
59338;SDS011;45117;50.960;5.500;2022-07-29T05:59:01;7.00;;;4.13;;
59338;SDS011;45117;50.960;5.500;2022-07-29T06:01:28;6.95;;;4.72;;
59338;SDS011;45117;50.960;5.500;2022-07-29T06:03:55;7.43;;;4.30;;
59338;SDS011;45117;50.960;5.500;2022-07-29T06:06:21;9.43;;;4.88;;
59338;SDS011;45117;50.960;5.500;2022-07-29T06:08:48;7.60;;;4.22;;
59338;SDS011;45117;50.960;5.500;2022-07-29T06:11:14;6.97;;;3.58;;
59338;SDS011;45117;50.960;5.500;2022-07-29T06:13:42;9.27;;;3.92;;
59338;SDS011;45117;50.960;5.500;2022-07-29T06:16:08;6.65;;;3.67;;
59338;SDS011;45117;50.960;5.500;2022-07-29T06:18:35;5.93;;;3.80;;
59338;SDS011;45117;50.960;5.500;2022-07-29T06:21:01;5.63;;;3.22;;
59338;SDS011;45117;50.960;5.500;2022-07-29T06:23:34;5.72;;;3.40;;
59338;SDS011;45117;50.960;5.500;2022-07-29T06:26:01;10.98;;;3.72;;
59338;SDS011;45117;50.960;5.500;2022-07-29T06:28:28;6.80;;;3.70;;
59338;SDS011;45117;50.960;5.500;2022-07-29T06:30:55;5.28;;;3.30;;
59338;SDS011;45117;50.960;5.500;2022-07-29T06:33:22;4.45;;;3.10;;
59338;SDS011;45117;50.960;5.500;2022-07-29T06:35:48;4.78;;;3.15;;
59338;SDS011;45117;50.960;5.500;2022-07-29T06:38:15;7.20;;;3.55;;
59338;SDS011;45117;50.960;5.500;2022-07-29T06:40:42;7.13;;;3.72;;
59338;SDS011;45117;50.960;5.500;2022-07-29T06:43:28;5.82;;;3.55;;
59338;SDS011;45117;50.960;5.500;2022-07-29T06:46:00;6.82;;;3.92;;
59338;SDS011;45117;50.960;5.500;2022-07-29T06:48:28;5.43;;;4.20;;
59338;SDS011;45117;50.960;5.500;2022-07-29T06:50:54;6.65;;;3.75;;
59338;SDS011;45117;50.960;5.500;2022-07-29T06:53:21;7.18;;;3.70;;
59338;SDS011;45117;50.960;5.500;2022-07-29T06:55:48;6.43;;;3.25;;
59338;SDS011;45117;50.960;5.500;2022-07-29T06:58:15;5.07;;;3.40;;
59338;SDS011;45117;50.960;5.500;2022-07-29T07:00:44;6.25;;;3.40;;
59338;SDS011;45117;50.960;5.500;2022-07-29T07:03:12;10.15;;;4.55;;
59338;SDS011;45117;50.960;5.500;2022-07-29T07:05:39;11.43;;;4.32;;
59338;SDS011;45117;50.960;5.500;2022-07-29T07:08:05;5.70;;;3.42;;
59338;SDS011;45117;50.960;5.500;2022-07-29T07:10:33;7.50;;;3.80;;
59338;SDS011;45117;50.960;5.500;2022-07-29T07:13:00;9.25;;;4.20;;
59338;SDS011;45117;50.960;5.500;2022-07-29T07:15:26;6.78;;;4.00;;
59338;SDS011;45117;50.960;5.500;2022-07-29T07:17:53;8.13;;;3.38;;
59338;SDS011;45117;50.960;5.500;2022-07-29T07:20:21;7.68;;;3.97;;
59338;SDS011;45117;50.960;5.500;2022-07-29T07:22:47;11.90;;;3.50;;
59338;SDS011;45117;50.960;5.500;2022-07-29T07:25:14;6.35;;;4.00;;
59338;SDS011;45117;50.960;5.500;2022-07-29T07:27:42;6.10;;;4.03;;
59338;SDS011;45117;50.960;5.500;2022-07-29T07:30:09;7.28;;;3.75;;
59338;SDS011;45117;50.960;5.500;2022-07-29T07:32:36;6.55;;;4.10;;
59338;SDS011;45117;50.960;5.500;2022-07-29T07:35:03;6.43;;;4.05;;
59338;SDS011;45117;50.960;5.500;2022-07-29T07:37:32;6.05;;;3.83;;
59338;SDS011;45117;50.960;5.500;2022-07-29T07:39:58;6.55;;;3.75;;
59338;SDS011;45117;50.960;5.500;2022-07-29T07:42:25;7.15;;;3.58;;
59338;SDS011;45117;50.960;5.500;2022-07-29T07:44:52;8.07;;;3.70;;
59338;SDS011;45117;50.960;5.500;2022-07-29T07:47:18;7.68;;;4.10;;
59338;SDS011;45117;50.960;5.500;2022-07-29T07:49:45;6.50;;;4.05;;
59338;SDS011;45117;50.960;5.500;2022-07-29T07:52:12;6.43;;;3.53;;
59338;SDS011;45117;50.960;5.500;2022-07-29T07:54:40;9.27;;;3.28;;
59338;SDS011;45117;50.960;5.500;2022-07-29T07:57:07;7.47;;;3.33;;
59338;SDS011;45117;50.960;5.500;2022-07-29T07:59:34;5.72;;;3.47;;
59338;SDS011;45117;50.960;5.500;2022-07-29T08:02:01;4.75;;;3.20;;
59338;SDS011;45117;50.960;5.500;2022-07-29T08:04:27;7.93;;;4.05;;
59338;SDS011;45117;50.960;5.500;2022-07-29T08:06:54;5.32;;;3.22;;
59338;SDS011;45117;50.960;5.500;2022-07-29T08:09:21;5.05;;;3.22;;
59338;SDS011;45117;50.960;5.500;2022-07-29T08:11:50;5.95;;;3.30;;
59338;SDS011;45117;50.960;5.500;2022-07-29T08:14:16;7.97;;;3.42;;
59338;SDS011;45117;50.960;5.500;2022-07-29T08:16:43;8.23;;;3.95;;
59338;SDS011;45117;50.960;5.500;2022-07-29T08:19:10;6.88;;;3.50;;
59338;SDS011;45117;50.960;5.500;2022-07-29T08:21:37;6.05;;;3.00;;
59338;SDS011;45117;50.960;5.500;2022-07-29T08:24:04;5.45;;;2.70;;
59338;SDS011;45117;50.960;5.500;2022-07-29T08:26:50;5.25;;;2.90;;
59338;SDS011;45117;50.960;5.500;2022-07-29T08:29:16;4.57;;;3.33;;
59338;SDS011;45117;50.960;5.500;2022-07-29T08:31:43;6.28;;;3.53;;
59338;SDS011;45117;50.960;5.500;2022-07-29T08:34:10;5.32;;;3.30;;
59338;SDS011;45117;50.960;5.500;2022-07-29T08:36:37;6.18;;;3.20;;
59338;SDS011;45117;50.960;5.500;2022-07-29T08:39:04;5.13;;;2.83;;
59338;SDS011;45117;50.960;5.500;2022-07-29T08:41:31;5.03;;;2.70;;
59338;SDS011;45117;50.960;5.500;2022-07-29T08:43:59;10.07;;;3.20;;
59338;SDS011;45117;50.960;5.500;2022-07-29T08:46:25;6.80;;;3.60;;
59338;SDS011;45117;50.960;5.500;2022-07-29T08:48:52;6.47;;;3.53;;
59338;SDS011;45117;50.960;5.500;2022-07-29T08:51:19;8.55;;;3.53;;
59338;SDS011;45117;50.960;5.500;2022-07-29T08:53:47;6.20;;;2.65;;
59338;SDS011;45117;50.960;5.500;2022-07-29T08:56:15;7.43;;;3.10;;
59338;SDS011;45117;50.960;5.500;2022-07-29T08:58:43;4.65;;;2.75;;
59338;SDS011;45117;50.960;5.500;2022-07-29T09:01:12;5.07;;;3.28;;
59338;SDS011;45117;50.960;5.500;2022-07-29T09:03:42;3.25;;;2.60;;
59338;SDS011;45117;50.960;5.500;2022-07-29T09:06:12;5.10;;;2.80;;
59338;SDS011;45117;50.960;5.500;2022-07-29T09:08:39;5.88;;;2.58;;
59338;SDS011;45117;50.960;5.500;2022-07-29T09:11:06;5.88;;;2.70;;
59338;SDS011;45117;50.960;5.500;2022-07-29T09:13:33;3.25;;;2.50;;
59338;SDS011;45117;50.960;5.500;2022-07-29T09:15:59;3.17;;;2.15;;
59338;SDS011;45117;50.960;5.500;2022-07-29T09:18:34;6.78;;;2.45;;
59338;SDS011;45117;50.960;5.500;2022-07-29T09:21:02;3.88;;;2.53;;
59338;SDS011;45117;50.960;5.500;2022-07-29T09:24:01;4.63;;;2.50;;
59338;SDS011;45117;50.960;5.500;2022-07-29T09:26:30;5.72;;;2.70;;
59338;SDS011;45117;50.960;5.500;2022-07-29T09:28:58;5.93;;;2.80;;
59338;SDS011;45117;50.960;5.500;2022-07-29T09:31:32;7.55;;;2.35;;
59338;SDS011;45117;50.960;5.500;2022-07-29T09:34:02;4.93;;;2.88;;
59338;SDS011;45117;50.960;5.500;2022-07-29T09:36:29;5.20;;;2.20;;
59338;SDS011;45117;50.960;5.500;2022-07-29T09:38:59;6.57;;;2.67;;
59338;SDS011;45117;50.960;5.500;2022-07-29T09:41:26;4.60;;;2.65;;
59338;SDS011;45117;50.960;5.500;2022-07-29T09:43:53;4.88;;;2.58;;
59338;SDS011;45117;50.960;5.500;2022-07-29T09:46:20;3.88;;;2.63;;
59338;SDS011;45117;50.960;5.500;2022-07-29T09:51:33;3.75;;;2.15;;
59338;SDS011;45117;50.960;5.500;2022-07-29T09:54:00;4.22;;;2.05;;
59338;SDS011;45117;50.960;5.500;2022-07-29T09:56:38;2.80;;;2.50;;
59338;SDS011;45117;50.960;5.500;2022-07-29T09:59:06;7.93;;;3.30;;
59338;SDS011;45117;50.960;5.500;2022-07-29T10:01:32;4.03;;;2.70;;
59338;SDS011;45117;50.960;5.500;2022-07-29T10:04:00;5.57;;;2.90;;
59338;SDS011;45117;50.960;5.500;2022-07-29T10:06:27;5.03;;;3.05;;
59338;SDS011;45117;50.960;5.500;2022-07-29T10:08:54;4.28;;;2.78;;
59338;SDS011;45117;50.960;5.500;2022-07-29T10:11:21;4.32;;;2.50;;
59338;SDS011;45117;50.960;5.500;2022-07-29T10:13:48;6.35;;;3.10;;
59338;SDS011;45117;50.960;5.500;2022-07-29T10:16:16;5.85;;;3.80;;
59338;SDS011;45117;50.960;5.500;2022-07-29T10:18:43;5.05;;;3.20;;
59338;SDS011;45117;50.960;5.500;2022-07-29T10:21:11;3.47;;;2.60;;
59338;SDS011;45117;50.960;5.500;2022-07-29T10:23:40;5.70;;;2.90;;
59338;SDS011;45117;50.960;5.500;2022-07-29T10:26:07;3.67;;;2.45;;
59338;SDS011;45117;50.960;5.500;2022-07-29T10:28:36;4.40;;;2.65;;
59338;SDS011;45117;50.960;5.500;2022-07-29T10:31:03;3.72;;;2.75;;
59338;SDS011;45117;50.960;5.500;2022-07-29T10:33:39;3.83;;;2.42;;
59338;SDS011;45117;50.960;5.500;2022-07-29T10:36:20;4.25;;;1.90;;
59338;SDS011;45117;50.960;5.500;2022-07-29T10:38:57;2.53;;;1.80;;
59338;SDS011;45117;50.960;5.500;2022-07-29T10:41:43;4.15;;;1.80;;
59338;SDS011;45117;50.960;5.500;2022-07-29T10:44:18;3.00;;;1.98;;
59338;SDS011;45117;50.960;5.500;2022-07-29T10:46:47;2.95;;;1.60;;
59338;SDS011;45117;50.960;5.500;2022-07-29T10:49:15;3.13;;;2.17;;
59338;SDS011;45117;50.960;5.500;2022-07-29T10:57:24;3.40;;;1.50;;
59338;SDS011;45117;50.960;5.500;2022-07-29T11:02:54;3.90;;;1.65;;
59338;SDS011;45117;50.960;5.500;2022-07-29T11:05:23;4.03;;;2.00;;
59338;SDS011;45117;50.960;5.500;2022-07-29T11:10:52;2.92;;;1.70;;
59338;SDS011;45117;50.960;5.500;2022-07-29T11:13:50;2.92;;;1.75;;
59338;SDS011;45117;50.960;5.500;2022-07-29T11:16:20;3.40;;;1.80;;
59338;SDS011;45117;50.960;5.500;2022-07-29T11:21:46;4.22;;;1.80;;
59338;SDS011;45117;50.960;5.500;2022-07-29T11:24:15;4.00;;;1.60;;
59338;SDS011;45117;50.960;5.500;2022-07-29T11:26:43;2.55;;;1.42;;
59338;SDS011;45117;50.960;5.500;2022-07-29T11:29:16;2.65;;;1.40;;
59338;SDS011;45117;50.960;5.500;2022-07-29T11:31:46;3.35;;;1.70;;
59338;SDS011;45117;50.960;5.500;2022-07-29T11:34:23;1.20;;;1.10;;
59338;SDS011;45117;50.960;5.500;2022-07-29T11:37:13;3.22;;;1.45;;
59338;SDS011;45117;50.960;5.500;2022-07-29T11:39:44;2.80;;;1.55;;
59338;SDS011;45117;50.960;5.500;2022-07-29T11:45:06;2.70;;;1.60;;
59338;SDS011;45117;50.960;5.500;2022-07-29T11:47:34;10.73;;;2.38;;
59338;SDS011;45117;50.960;5.500;2022-07-29T11:50:02;7.45;;;1.75;;
59338;SDS011;45117;50.960;5.500;2022-07-29T11:52:32;2.78;;;1.40;;
59338;SDS011;45117;50.960;5.500;2022-07-29T11:55:03;3.80;;;1.50;;
59338;SDS011;45117;50.960;5.500;2022-07-29T11:57:31;2.78;;;1.20;;
59338;SDS011;45117;50.960;5.500;2022-07-29T12:00:00;3.15;;;1.23;;
59338;SDS011;45117;50.960;5.500;2022-07-29T12:02:37;3.00;;;1.50;;
59338;SDS011;45117;50.960;5.500;2022-07-29T12:05:05;2.50;;;1.50;;
59338;SDS011;45117;50.960;5.500;2022-07-29T12:07:32;4.05;;;1.45;;
59338;SDS011;45117;50.960;5.500;2022-07-29T12:10:00;3.28;;;1.20;;
59338;SDS011;45117;50.960;5.500;2022-07-29T12:12:27;4.40;;;1.40;;
59338;SDS011;45117;50.960;5.500;2022-07-29T12:14:54;4.00;;;1.70;;
59338;SDS011;45117;50.960;5.500;2022-07-29T12:17:28;2.53;;;1.38;;
59338;SDS011;45117;50.960;5.500;2022-07-29T12:19:56;2.13;;;1.27;;
59338;SDS011;45117;50.960;5.500;2022-07-29T12:22:24;2.33;;;1.00;;
59338;SDS011;45117;50.960;5.500;2022-07-29T12:24:52;1.25;;;1.13;;
59338;SDS011;45117;50.960;5.500;2022-07-29T12:27:19;2.45;;;1.30;;
59338;SDS011;45117;50.960;5.500;2022-07-29T12:29:54;1.23;;;1.10;;
59338;SDS011;45117;50.960;5.500;2022-07-29T12:32:22;3.13;;;1.42;;
59338;SDS011;45117;50.960;5.500;2022-07-29T12:34:50;4.10;;;1.45;;
59338;SDS011;45117;50.960;5.500;2022-07-29T12:37:16;3.65;;;1.48;;
59338;SDS011;45117;50.960;5.500;2022-07-29T12:39:45;1.75;;;1.05;;
59338;SDS011;45117;50.960;5.500;2022-07-29T12:42:12;4.57;;;1.13;;
59338;SDS011;45117;50.960;5.500;2022-07-29T12:44:43;2.50;;;1.40;;
59338;SDS011;45117;50.960;5.500;2022-07-29T12:47:11;1.35;;;1.08;;
59338;SDS011;45117;50.960;5.500;2022-07-29T12:49:38;1.90;;;1.13;;
59338;SDS011;45117;50.960;5.500;2022-07-29T12:54:57;2.40;;;1.40;;
59338;SDS011;45117;50.960;5.500;2022-07-29T12:57:23;3.22;;;1.50;;
59338;SDS011;45117;50.960;5.500;2022-07-29T13:00:00;2.90;;;1.35;;
59338;SDS011;45117;50.960;5.500;2022-07-29T13:02:30;2.17;;;1.45;;
59338;SDS011;45117;50.960;5.500;2022-07-29T13:04:57;3.42;;;1.35;;
59338;SDS011;45117;50.960;5.500;2022-07-29T13:07:25;3.53;;;1.52;;
59338;SDS011;45117;50.960;5.500;2022-07-29T13:09:53;2.45;;;1.40;;
59338;SDS011;45117;50.960;5.500;2022-07-29T13:12:20;1.95;;;1.35;;
59338;SDS011;45117;50.960;5.500;2022-07-29T13:14:48;3.33;;;1.40;;
59338;SDS011;45117;50.960;5.500;2022-07-29T13:17:16;3.22;;;1.27;;
59338;SDS011;45117;50.960;5.500;2022-07-29T13:19:45;2.40;;;1.50;;
59338;SDS011;45117;50.960;5.500;2022-07-29T13:22:13;2.60;;;1.30;;
59338;SDS011;45117;50.960;5.500;2022-07-29T13:24:47;2.03;;;1.50;;
59338;SDS011;45117;50.960;5.500;2022-07-29T13:27:16;3.75;;;1.30;;
59338;SDS011;45117;50.960;5.500;2022-07-29T13:29:43;3.25;;;1.50;;
59338;SDS011;45117;50.960;5.500;2022-07-29T13:32:11;2.53;;;1.40;;
59338;SDS011;45117;50.960;5.500;2022-07-29T13:34:38;2.67;;;1.10;;
59338;SDS011;45117;50.960;5.500;2022-07-29T13:37:04;4.60;;;1.58;;
59338;SDS011;45117;50.960;5.500;2022-07-29T13:39:31;2.25;;;1.55;;
59338;SDS011;45117;50.960;5.500;2022-07-29T13:41:58;2.92;;;1.42;;
59338;SDS011;45117;50.960;5.500;2022-07-29T13:44:26;4.85;;;2.45;;
59338;SDS011;45117;50.960;5.500;2022-07-29T13:46:52;4.32;;;1.60;;
59338;SDS011;45117;50.960;5.500;2022-07-29T13:49:19;2.65;;;1.52;;
59338;SDS011;45117;50.960;5.500;2022-07-29T13:51:45;2.50;;;1.40;;
59338;SDS011;45117;50.960;5.500;2022-07-29T13:54:12;2.10;;;1.40;;
59338;SDS011;45117;50.960;5.500;2022-07-29T13:56:38;3.17;;;1.67;;
59338;SDS011;45117;50.960;5.500;2022-07-29T13:59:05;4.18;;;1.42;;
59338;SDS011;45117;50.960;5.500;2022-07-29T14:01:34;3.08;;;1.45;;
59338;SDS011;45117;50.960;5.500;2022-07-29T14:04:00;2.03;;;1.30;;
59338;SDS011;45117;50.960;5.500;2022-07-29T14:06:27;3.55;;;1.50;;
59338;SDS011;45117;50.960;5.500;2022-07-29T14:08:53;3.00;;;1.20;;
59338;SDS011;45117;50.960;5.500;2022-07-29T14:11:20;4.25;;;1.63;;
59338;SDS011;45117;50.960;5.500;2022-07-29T14:13:46;4.25;;;1.25;;
59338;SDS011;45117;50.960;5.500;2022-07-29T14:16:13;3.22;;;1.38;;
59338;SDS011;45117;50.960;5.500;2022-07-29T14:18:41;3.53;;;1.40;;
59338;SDS011;45117;50.960;5.500;2022-07-29T14:21:07;3.55;;;1.73;;
59338;SDS011;45117;50.960;5.500;2022-07-29T14:23:34;1.80;;;1.27;;
59338;SDS011;45117;50.960;5.500;2022-07-29T14:26:01;3.80;;;1.55;;
59338;SDS011;45117;50.960;5.500;2022-07-29T14:28:27;4.85;;;1.40;;
59338;SDS011;45117;50.960;5.500;2022-07-29T14:30:54;2.08;;;1.40;;
59338;SDS011;45117;50.960;5.500;2022-07-29T14:33:21;2.90;;;1.48;;
59338;SDS011;45117;50.960;5.500;2022-07-29T14:35:49;2.90;;;1.20;;
59338;SDS011;45117;50.960;5.500;2022-07-29T14:38:15;5.20;;;1.48;;
59338;SDS011;45117;50.960;5.500;2022-07-29T14:40:42;4.47;;;1.40;;
59338;SDS011;45117;50.960;5.500;2022-07-29T14:43:08;2.22;;;1.27;;
59338;SDS011;45117;50.960;5.500;2022-07-29T14:45:35;3.58;;;1.30;;
59338;SDS011;45117;50.960;5.500;2022-07-29T14:48:02;3.75;;;1.50;;
59338;SDS011;45117;50.960;5.500;2022-07-29T14:50:28;3.33;;;1.45;;
59338;SDS011;45117;50.960;5.500;2022-07-29T14:52:56;3.58;;;1.65;;
59338;SDS011;45117;50.960;5.500;2022-07-29T14:55:23;4.80;;;1.60;;
59338;SDS011;45117;50.960;5.500;2022-07-29T14:57:49;2.90;;;1.38;;
59338;SDS011;45117;50.960;5.500;2022-07-29T15:00:16;3.13;;;1.48;;
59338;SDS011;45117;50.960;5.500;2022-07-29T15:02:43;2.50;;;1.10;;
59338;SDS011;45117;50.960;5.500;2022-07-29T15:05:10;4.57;;;1.52;;
59338;SDS011;45117;50.960;5.500;2022-07-29T15:07:36;3.17;;;1.40;;
59338;SDS011;45117;50.960;5.500;2022-07-29T15:10:04;4.07;;;1.60;;
59338;SDS011;45117;50.960;5.500;2022-07-29T15:12:31;2.75;;;1.50;;
59338;SDS011;45117;50.960;5.500;2022-07-29T15:14:58;4.10;;;1.25;;
59338;SDS011;45117;50.960;5.500;2022-07-29T15:17:25;2.50;;;1.25;;
59338;SDS011;45117;50.960;5.500;2022-07-29T15:19:51;4.22;;;1.60;;